Time;durP1;ratioP1;P1;durP2;ratioP2;P2;SDS_P1;SDS_P2;PMS_P1;PMS_P2;Temp;Humidity;BMP_temperature;BMP_pressure;BME280_temperature;BME280_humidity;BME280_pressure;Samples;Min_cycle;Max_cycle;Signal;HPM_P1;HPM_P2
2022/05/03 00:00:04;;;;;;;13.23;2.55;;;;;;;;;;5094807;28;20204;-69
2022/05/03 00:02:36;;;;;;;18.90;2.50;;;;;;;;;;5094103;28;20216;-70
2022/05/03 00:05:05;;;;;;;15.75;3.50;;;;;;;;;;5094572;28;20210;-69
2022/05/03 00:07:36;;;;;;;15.80;2.97;;;;;;;;;;5094478;28;20200;-69
2022/05/03 00:10:06;;;;;;;13.02;2.33;;;;;;;;;;5094532;28;20238;-69
2022/05/03 00:12:35;;;;;;;13.30;2.53;;;;;;;;;;5094667;28;20585;-69
2022/05/03 00:15:05;;;;;;;17.15;2.75;;;;;;;;;;5094432;28;20192;-69
2022/05/03 00:17:34;;;;;;;14.60;2.47;;;;;;;;;;5094317;28;20200;-69
2022/05/03 00:20:01;;;;;;;13.75;2.83;;;;;;;;;;5094185;28;20207;-69
2022/05/03 00:22:29;;;;;;;15.82;2.72;;;;;;;;;;5094338;28;20211;-69
2022/05/03 00:24:57;;;;;;;16.08;2.72;;;;;;;;;;5094173;28;20193;-69
2022/05/03 00:27:26;;;;;;;14.57;3.20;;;;;;;;;;5093840;28;20200;-69
2022/05/03 00:29:54;;;;;;;18.48;2.83;;;;;;;;;;5093808;28;20285;-69
2022/05/03 00:32:24;;;;;;;15.35;3.15;;;;;;;;;;5094310;28;20196;-69
2022/05/03 00:34:51;;;;;;;13.80;2.30;;;;;;;;;;5094163;28;20207;-69
2022/05/03 00:37:19;;;;;;;15.35;3.15;;;;;;;;;;5093569;28;20295;-69
2022/05/03 00:39:46;;;;;;;16.65;2.97;;;;;;;;;;5093773;28;20204;-70
2022/05/03 00:42:17;;;;;;;16.77;3.22;;;;;;;;;;5093702;28;20206;-70
2022/05/03 00:44:58;;;;;;;14.88;3.40;;;;;;;;;;5093787;28;20226;-70
2022/05/03 00:47:33;;;;;;;15.70;3.47;;;;;;;;;;5093799;28;20199;-69
2022/05/03 00:50:06;;;;;;;13.10;2.50;;;;;;;;;;5094000;28;20223;-69
2022/05/03 00:52:37;;;;;;;16.15;3.40;;;;;;;;;;5093638;28;20196;-69
2022/05/03 00:55:20;;;;;;;15.30;2.95;;;;;;;;;;5093480;28;20196;-69
2022/05/03 00:57:56;;;;;;;13.98;3.20;;;;;;;;;;5093524;28;20196;-68
2022/05/03 01:00:25;;;;;;;14.20;3.20;;;;;;;;;;5093694;28;20569;-69
2022/05/03 01:03:07;;;;;;;13.70;3.05;;;;;;;;;;5092698;28;20203;-69
2022/05/03 01:05:38;;;;;;;23.00;3.60;;;;;;;;;;5092817;28;20192;-69
2022/05/03 01:08:07;;;;;;;15.07;3.33;;;;;;;;;;5093659;28;20234;-69
2022/05/03 01:10:35;;;;;;;16.35;3.50;;;;;;;;;;5093219;28;20249;-69
2022/05/03 01:13:04;;;;;;;15.35;3.35;;;;;;;;;;5093322;28;20207;-69
2022/05/03 01:15:33;;;;;;;17.02;3.20;;;;;;;;;;5092835;28;20200;-69
2022/05/03 01:18:08;;;;;;;15.45;4.03;;;;;;;;;;5092994;28;20208;-69
2022/05/03 01:20:42;;;;;;;14.55;2.65;;;;;;;;;;5093309;28;20580;-69
2022/05/03 01:23:19;;;;;;;14.63;3.63;;;;;;;;;;5092798;28;20242;-70
2022/05/03 01:26:04;;;;;;;14.43;3.60;;;;;;;;;;5093167;28;20200;-69
2022/05/03 01:28:32;;;;;;;15.82;3.60;;;;;;;;;;5093542;28;20648;-69
2022/05/03 01:31:05;;;;;;;13.63;2.75;;;;;;;;;;5092705;28;20832;-69
2022/05/03 01:33:35;;;;;;;17.45;4.30;;;;;;;;;;5092918;28;20645;-69
2022/05/03 01:36:04;;;;;;;15.07;3.22;;;;;;;;;;5092745;28;20192;-69
2022/05/03 01:38:37;;;;;;;15.50;3.30;;;;;;;;;;5092735;28;20291;-70
2022/05/03 01:41:10;;;;;;;14.75;3.80;;;;;;;;;;5092976;28;20214;-69
2022/05/03 01:43:49;;;;;;;15.10;3.85;;;;;;;;;;5093356;28;20203;-69
2022/05/03 01:46:23;;;;;;;13.90;3.55;;;;;;;;;;5092634;28;20283;-69
2022/05/03 01:51:48;;;;;;;16.25;3.35;;;;;;;;;;5092957;28;20234;-69
2022/05/03 01:54:25;;;;;;;14.00;3.17;;;;;;;;;;5092890;28;20196;-69
2022/05/03 01:56:59;;;;;;;14.10;3.55;;;;;;;;;;5092761;28;20196;-69
2022/05/03 01:59:32;;;;;;;14.65;3.05;;;;;;;;;;5092148;28;20550;-69
2022/05/03 02:02:04;;;;;;;15.73;3.15;;;;;;;;;;5092238;28;20216;-69
2022/05/03 02:04:40;;;;;;;13.68;2.72;;;;;;;;;;5092767;28;20207;-69
2022/05/03 02:07:09;;;;;;;14.43;3.45;;;;;;;;;;5092411;28;20200;-69
2022/05/03 02:09:51;;;;;;;14.95;3.40;;;;;;;;;;5092484;28;20656;-69
2022/05/03 02:12:20;;;;;;;16.70;3.67;;;;;;;;;;5092941;28;20195;-69
2022/05/03 02:14:50;;;;;;;14.07;3.38;;;;;;;;;;5092045;28;20200;-69
2022/05/03 02:17:37;;;;;;;17.65;4.25;;;;;;;;;;5092688;28;20261;-69
2022/05/03 02:20:14;;;;;;;15.38;4.10;;;;;;;;;;5092289;28;20286;-68
2022/05/03 02:22:57;;;;;;;16.38;4.32;;;;;;;;;;5091802;28;20196;-69
2022/05/03 02:25:33;;;;;;;14.70;3.47;;;;;;;;;;5092039;28;20661;-69
2022/05/03 02:28:04;;;;;;;14.63;3.33;;;;;;;;;;5092145;28;20199;-69
2022/05/03 02:30:34;;;;;;;14.95;3.42;;;;;;;;;;5092262;28;20224;-69
2022/05/03 02:33:05;;;;;;;16.60;3.70;;;;;;;;;;5092614;28;20203;-69
2022/05/03 02:35:34;;;;;;;15.40;3.72;;;;;;;;;;5091771;28;20604;-69
2022/05/03 02:38:04;;;;;;;16.48;4.70;;;;;;;;;;5092232;28;20207;-69
2022/05/03 02:40:32;;;;;;;15.38;4.28;;;;;;;;;;5091827;28;20206;-69
2022/05/03 02:43:00;;;;;;;15.68;4.40;;;;;;;;;;5091824;28;20200;-69
2022/05/03 02:45:28;;;;;;;15.75;4.00;;;;;;;;;;5091716;28;20265;-69
2022/05/03 02:48:01;;;;;;;18.38;4.70;;;;;;;;;;5092114;28;20204;-69
2022/05/03 02:50:32;;;;;;;19.75;3.95;;;;;;;;;;5091789;28;20614;-69
2022/05/03 02:53:03;;;;;;;18.55;4.20;;;;;;;;;;5091894;28;20196;-69
2022/05/03 02:55:34;;;;;;;15.18;3.53;;;;;;;;;;5091539;28;20680;-69
2022/05/03 02:58:06;;;;;;;16.90;4.25;;;;;;;;;;5091833;28;20207;-69
2022/05/03 03:03:36;;;;;;;16.67;3.90;;;;;;;;;;5091677;28;20198;-69
2022/05/03 03:06:05;;;;;;;14.60;3.88;;;;;;;;;;5091875;28;20200;-69
2022/05/03 03:08:37;;;;;;;16.90;4.20;;;;;;;;;;5091841;28;20283;-69
2022/05/03 03:11:07;;;;;;;15.23;4.10;;;;;;;;;;5091898;28;20228;-69
2022/05/03 03:13:43;;;;;;;18.40;4.20;;;;;;;;;;5091537;28;20584;-69
2022/05/03 03:16:14;;;;;;;15.43;4.05;;;;;;;;;;5091658;28;20196;-69
2022/05/03 03:18:42;;;;;;;17.02;4.55;;;;;;;;;;5091457;28;20669;-69
2022/05/03 03:21:13;;;;;;;15.70;4.55;;;;;;;;;;5091239;28;20200;-69
2022/05/03 03:23:42;;;;;;;16.33;4.40;;;;;;;;;;5091486;28;20232;-69
2022/05/03 03:26:11;;;;;;;14.88;3.90;;;;;;;;;;5091575;28;20249;-69
2022/05/03 03:28:39;;;;;;;14.70;4.32;;;;;;;;;;5094926;28;20208;-69
2022/05/03 03:31:08;;;;;;;15.40;4.45;;;;;;;;;;5094981;28;20285;-69
2022/05/03 03:33:38;;;;;;;14.68;3.67;;;;;;;;;;5095470;28;20188;-69
2022/05/03 03:36:08;;;;;;;17.20;3.80;;;;;;;;;;5095342;28;20223;-69
2022/05/03 03:38:39;;;;;;;16.95;4.40;;;;;;;;;;5094947;28;20195;-69
2022/05/03 03:41:09;;;;;;;17.33;4.30;;;;;;;;;;5095017;28;20202;-69
2022/05/03 03:43:36;;;;;;;15.95;4.00;;;;;;;;;;5094852;28;20200;-69
2022/05/03 03:46:04;;;;;;;18.45;4.47;;;;;;;;;;5095295;28;20629;-69
2022/05/03 03:48:32;;;;;;;17.00;5.40;;;;;;;;;;5095102;28;20206;-69
2022/05/03 03:51:00;;;;;;;17.58;4.07;;;;;;;;;;5094871;28;20754;-69
2022/05/03 03:53:30;;;;;;;15.10;3.65;;;;;;;;;;5094591;28;20682;-69
2022/05/03 03:56:00;;;;;;;15.93;4.10;;;;;;;;;;5094858;28;20855;-69
2022/05/03 03:58:28;;;;;;;21.67;4.20;;;;;;;;;;5095079;28;20215;-69
2022/05/03 04:00:55;;;;;;;19.98;4.90;;;;;;;;;;5094187;28;20226;-69
2022/05/03 04:03:23;;;;;;;21.45;4.40;;;;;;;;;;5094601;28;20196;-69
2022/05/03 04:05:51;;;;;;;17.23;4.20;;;;;;;;;;5094691;28;20196;-69
2022/05/03 04:08:19;;;;;;;23.33;4.15;;;;;;;;;;5094425;28;20589;-69
2022/05/03 04:10:49;;;;;;;20.05;4.68;;;;;;;;;;5094349;28;20301;-69
2022/05/03 04:13:17;;;;;;;16.00;4.60;;;;;;;;;;5094128;28;20200;-69
2022/05/03 04:15:45;;;;;;;15.15;4.00;;;;;;;;;;5094347;28;20206;-70
2022/05/03 04:18:13;;;;;;;20.70;4.65;;;;;;;;;;5094330;28;20196;-69
2022/05/03 04:20:40;;;;;;;15.70;5.15;;;;;;;;;;5094466;28;20204;-69
2022/05/03 04:23:09;;;;;;;18.67;4.43;;;;;;;;;;5094241;28;20236;-69
2022/05/03 04:25:37;;;;;;;16.17;4.50;;;;;;;;;;5094536;28;20199;-69
2022/05/03 04:28:05;;;;;;;15.80;4.40;;;;;;;;;;5094166;28;20249;-69
2022/05/03 04:30:33;;;;;;;19.55;4.13;;;;;;;;;;5094046;28;20209;-69
2022/05/03 04:33:01;;;;;;;15.80;4.22;;;;;;;;;;5093994;28;20212;-69
2022/05/03 04:35:28;;;;;;;19.35;4.97;;;;;;;;;;5093769;28;20203;-68
2022/05/03 04:37:56;;;;;;;16.52;5.05;;;;;;;;;;5093945;28;20265;-69
2022/05/03 04:40:23;;;;;;;17.27;4.70;;;;;;;;;;5093816;28;20192;-69
2022/05/03 04:42:51;;;;;;;16.77;4.65;;;;;;;;;;5093729;28;20654;-69
2022/05/03 04:45:19;;;;;;;18.30;4.35;;;;;;;;;;5093536;28;20671;-69
2022/05/03 04:47:48;;;;;;;18.88;5.50;;;;;;;;;;5093564;28;20196;-69
2022/05/03 04:50:17;;;;;;;22.35;6.35;;;;;;;;;;5093690;28;20207;-69
2022/05/03 04:52:44;;;;;;;17.40;5.47;;;;;;;;;;5093780;28;20227;-69
2022/05/03 04:55:11;;;;;;;20.15;5.50;;;;;;;;;;5093345;28;20204;-70
2022/05/03 04:57:39;;;;;;;19.23;5.30;;;;;;;;;;5093803;28;20227;-69
2022/05/03 05:00:07;;;;;;;18.85;5.78;;;;;;;;;;5093505;28;20204;-69
2022/05/03 05:02:34;;;;;;;15.93;4.68;;;;;;;;;;5093495;28;20243;-69
2022/05/03 05:05:03;;;;;;;17.90;4.90;;;;;;;;;;5093444;28;20295;-69
2022/05/03 05:07:31;;;;;;;17.90;5.10;;;;;;;;;;5093296;28;20196;-69
2022/05/03 05:12:43;;;;;;;14.70;4.25;;;;;;;;;;5093226;28;20227;-69
2022/05/03 05:15:11;;;;;;;19.48;5.93;;;;;;;;;;5093019;28;20257;-69
2022/05/03 05:17:39;;;;;;;15.77;4.38;;;;;;;;;;5093344;28;20306;-69
2022/05/03 05:20:08;;;;;;;16.52;4.80;;;;;;;;;;5093170;28;20196;-69
2022/05/03 05:22:37;;;;;;;14.70;3.80;;;;;;;;;;5092936;28;20196;-69
2022/05/03 05:25:05;;;;;;;16.25;4.75;;;;;;;;;;5092906;28;20228;-69
2022/05/03 05:27:32;;;;;;;16.05;5.05;;;;;;;;;;5092728;28;20200;-69
2022/05/03 05:29:59;;;;;;;21.88;5.00;;;;;;;;;;5092923;28;20192;-69
2022/05/03 05:32:27;;;;;;;16.48;5.35;;;;;;;;;;5092797;28;20223;-68
2022/05/03 05:34:54;;;;;;;17.85;4.20;;;;;;;;;;5093079;28;20199;-69
2022/05/03 05:37:23;;;;;;;15.80;4.35;;;;;;;;;;5092742;28;20200;-69
2022/05/03 05:39:51;;;;;;;16.60;4.40;;;;;;;;;;5092904;28;20211;-69
2022/05/03 05:42:18;;;;;;;16.13;4.70;;;;;;;;;;5092656;28;20210;-68
2022/05/03 05:44:45;;;;;;;15.20;4.82;;;;;;;;;;5092576;28;20207;-69
2022/05/03 05:47:13;;;;;;;16.38;3.33;;;;;;;;;;5092313;28;20196;-69
2022/05/03 05:49:41;;;;;;;16.92;4.45;;;;;;;;;;5092119;28;20253;-69
2022/05/03 05:54:55;;;;;;;15.65;4.05;;;;;;;;;;5092611;28;20202;-69
2022/05/03 05:57:23;;;;;;;14.35;3.50;;;;;;;;;;5092212;28;20192;-69
2022/05/03 05:59:50;;;;;;;15.40;3.67;;;;;;;;;;5092575;28;20196;-69
2022/05/03 06:02:17;;;;;;;18.05;3.58;;;;;;;;;;5092298;28;20220;-69
2022/05/03 06:04:45;;;;;;;16.10;4.05;;;;;;;;;;5092400;28;20204;-69
2022/05/03 06:07:12;;;;;;;15.20;3.90;;;;;;;;;;5091985;28;20196;-69
2022/05/03 06:09:40;;;;;;;17.08;3.88;;;;;;;;;;5092140;28;20200;-69
2022/05/03 06:12:09;;;;;;;17.08;3.60;;;;;;;;;;5092040;28;20220;-69
2022/05/03 06:14:37;;;;;;;15.30;3.60;;;;;;;;;;5092431;28;20200;-68
2022/05/03 06:17:04;;;;;;;15.30;3.90;;;;;;;;;;5092288;28;20196;-69
2022/05/03 06:19:32;;;;;;;16.38;3.50;;;;;;;;;;5092023;28;20192;-68
2022/05/03 06:21:59;;;;;;;16.13;4.43;;;;;;;;;;5091995;28;20573;-68
2022/05/03 06:24:27;;;;;;;17.20;4.30;;;;;;;;;;5092419;28;20227;-68
2022/05/03 06:26:55;;;;;;;20.05;4.65;;;;;;;;;;5092261;28;20202;-68
2022/05/03 06:29:24;;;;;;;16.13;4.10;;;;;;;;;;5091896;28;20196;-68
2022/05/03 06:31:51;;;;;;;17.92;3.65;;;;;;;;;;5091895;28;20228;-68
2022/05/03 06:34:19;;;;;;;14.68;3.40;;;;;;;;;;5092015;28;20606;-68
2022/05/03 06:36:49;;;;;;;15.80;3.58;;;;;;;;;;5091921;28;20219;-68
2022/05/03 06:39:17;;;;;;;14.98;3.55;;;;;;;;;;5092056;28;20203;-68
2022/05/03 06:41:44;;;;;;;19.35;3.75;;;;;;;;;;5091844;28;20558;-68
2022/05/03 06:44:13;;;;;;;14.88;3.80;;;;;;;;;;5091935;28;20200;-68
2022/05/03 06:46:42;;;;;;;15.02;4.00;;;;;;;;;;5091808;28;20227;-68
2022/05/03 06:49:10;;;;;;;14.20;3.60;;;;;;;;;;5091657;28;20192;-70
2022/05/03 06:51:38;;;;;;;25.33;4.27;;;;;;;;;;5091624;28;20220;-68
2022/05/03 06:54:06;;;;;;;15.35;3.60;;;;;;;;;;5092068;28;20480;-69
2022/05/03 06:56:35;;;;;;;17.42;4.22;;;;;;;;;;5091665;28;20196;-69
2022/05/03 06:59:03;;;;;;;20.08;4.53;;;;;;;;;;5091690;28;20231;-68
2022/05/03 07:01:31;;;;;;;15.90;4.07;;;;;;;;;;5093322;28;20231;-69
2022/05/03 07:04:01;;;;;;;14.00;3.67;;;;;;;;;;5095973;28;20438;-68
2022/05/03 07:06:29;;;;;;;15.80;3.90;;;;;;;;;;5095628;28;20204;-68
2022/05/03 07:08:56;;;;;;;15.32;3.40;;;;;;;;;;5095877;28;20428;-68
2022/05/03 07:11:24;;;;;;;16.43;3.20;;;;;;;;;;5095492;28;20610;-68
2022/05/03 07:13:51;;;;;;;15.43;3.70;;;;;;;;;;5095597;28;20886;-68
2022/05/03 07:16:19;;;;;;;17.80;3.20;;;;;;;;;;5095684;28;20524;-69
2022/05/03 07:24:18;;;;;;;15.10;3.73;;;;;;;;;;5095721;28;20588;-68
2022/05/03 07:26:46;;;;;;;16.10;3.70;;;;;;;;;;5095217;28;20438;-69
2022/05/03 07:29:13;;;;;;;15.00;3.07;;;;;;;;;;5094945;28;20454;-68
2022/05/03 07:31:43;;;;;;;15.17;3.30;;;;;;;;;;5095064;28;20488;-69
2022/05/03 07:34:11;;;;;;;17.60;3.60;;;;;;;;;;5095242;28;20452;-69
2022/05/03 07:36:41;;;;;;;15.53;4.60;;;;;;;;;;5095066;28;20435;-69
2022/05/03 07:39:09;;;;;;;13.57;2.73;;;;;;;;;;5094916;28;20450;-69
2022/05/03 07:41:36;;;;;;;14.80;3.03;;;;;;;;;;5095231;28;20452;-69
2022/05/03 07:44:04;;;;;;;14.30;3.17;;;;;;;;;;5095085;28;20441;-69
2022/05/03 07:46:31;;;;;;;16.23;4.07;;;;;;;;;;5094889;28;20434;-71
2022/05/03 07:48:59;;;;;;;16.13;2.97;;;;;;;;;;5094947;28;20562;-70
2022/05/03 07:51:26;;;;;;;17.10;3.60;;;;;;;;;;5094558;28;20430;-69
2022/05/03 07:53:56;;;;;;;15.60;3.27;;;;;;;;;;5094662;28;20445;-69
2022/05/03 07:56:23;;;;;;;14.23;3.17;;;;;;;;;;5094934;28;20442;-70
2022/05/03 07:58:50;;;;;;;15.20;2.70;;;;;;;;;;5094761;28;20435;-69
2022/05/03 08:01:18;;;;;;;14.67;2.80;;;;;;;;;;5094335;28;20453;-69
2022/05/03 08:03:45;;;;;;;17.13;4.00;;;;;;;;;;5094723;28;20442;-69
2022/05/03 08:06:13;;;;;;;13.90;3.37;;;;;;;;;;5094437;28;20463;-71
2022/05/03 08:08:40;;;;;;;12.90;2.27;;;;;;;;;;5094479;28;20453;-69
2022/05/03 08:11:10;;;;;;;13.03;2.30;;;;;;;;;;5094616;28;20438;-69
2022/05/03 08:13:38;;;;;;;15.43;2.93;;;;;;;;;;5093840;28;20504;-69
2022/05/03 08:16:06;;;;;;;14.63;3.10;;;;;;;;;;5094434;28;20434;-69
2022/05/03 08:18:33;;;;;;;16.50;2.57;;;;;;;;;;5094336;28;20450;-70
2022/05/03 08:21:01;;;;;;;14.73;2.90;;;;;;;;;;5094502;28;20445;-69
2022/05/03 08:23:29;;;;;;;14.37;2.50;;;;;;;;;;5093694;28;20485;-69
2022/05/03 08:25:56;;;;;;;13.80;2.87;;;;;;;;;;5094544;28;20827;-68
2022/05/03 08:28:26;;;;;;;14.87;3.13;;;;;;;;;;5094174;28;20445;-68
2022/05/03 08:30:53;;;;;;;13.53;2.67;;;;;;;;;;5094008;28;20446;-68
2022/05/03 08:33:20;;;;;;;12.53;2.50;;;;;;;;;;5093583;28;20484;-69
2022/05/03 08:35:48;;;;;;;13.40;2.80;;;;;;;;;;5094358;28;20473;-69
2022/05/03 08:43:48;;;;;;;21.20;3.40;;;;;;;;;;5093889;28;20487;-69
2022/05/03 08:46:18;;;;;;;16.53;3.00;;;;;;;;;;5093664;28;20459;-69
2022/05/03 08:48:47;;;;;;;13.93;3.37;;;;;;;;;;5093978;28;20439;-69
2022/05/03 08:51:16;;;;;;;16.00;3.90;;;;;;;;;;5093547;28;20446;-69
2022/05/03 08:53:44;;;;;;;15.30;3.57;;;;;;;;;;5093499;28;20489;-69
2022/05/03 08:56:12;;;;;;;15.77;3.90;;;;;;;;;;5093499;28;20816;-68
2022/05/03 08:58:42;;;;;;;14.30;2.70;;;;;;;;;;5093777;28;20525;-69
2022/05/03 09:01:11;;;;;;;14.93;2.60;;;;;;;;;;5093623;28;20461;-69
2022/05/03 09:03:39;;;;;;;13.97;3.00;;;;;;;;;;5093329;28;20442;-69
2022/05/03 09:06:07;;;;;;;16.00;2.73;;;;;;;;;;5093260;28;20857;-69
2022/05/03 09:08:35;;;;;;;15.53;2.63;;;;;;;;;;5093427;28;20872;-69
2022/05/03 09:11:14;;;;;;;20.07;2.80;;;;;;;;;;5093264;28;20445;-69
2022/05/03 09:13:42;;;;;;;14.10;2.57;;;;;;;;;;5093637;28;20539;-69
2022/05/03 09:16:12;;;;;;;16.33;3.00;;;;;;;;;;5093615;28;20450;-69
2022/05/03 09:18:41;;;;;;;19.27;3.00;;;;;;;;;;5093495;28;20438;-69
2022/05/03 09:24:06;;;;;;;15.13;3.00;;;;;;;;;;5092615;28;20858;-69
2022/05/03 09:26:33;;;;;;;15.40;4.00;;;;;;;;;;5092703;28;20507;-69
2022/05/03 09:29:02;;;;;;;14.80;3.07;;;;;;;;;;5093404;28;20908;-69
2022/05/03 09:31:33;;;;;;;15.10;2.90;;;;;;;;;;5092685;28;20438;-69
2022/05/03 09:34:01;;;;;;;13.87;2.53;;;;;;;;;;5092717;28;20478;-69
2022/05/03 09:36:28;;;;;;;13.87;2.57;;;;;;;;;;5093065;28;20945;-69
2022/05/03 09:38:56;;;;;;;14.80;2.70;;;;;;;;;;5093265;28;20461;-69
2022/05/03 09:41:25;;;;;;;14.27;2.20;;;;;;;;;;5092906;28;20555;-69
2022/05/03 09:44:03;;;;;;;16.53;2.57;;;;;;;;;;5092753;28;20846;-69
2022/05/03 09:46:33;;;;;;;13.03;2.20;;;;;;;;;;5092615;28;20446;-69
2022/05/03 09:49:01;;;;;;;13.73;2.50;;;;;;;;;;5093036;28;20477;-69
2022/05/03 09:51:28;;;;;;;14.57;2.20;;;;;;;;;;5092401;28;20446;-69
2022/05/03 09:53:59;;;;;;;17.87;2.40;;;;;;;;;;5092441;28;20486;-69
2022/05/03 09:56:28;;;;;;;13.87;2.43;;;;;;;;;;5092427;28;20823;-69
2022/05/03 09:58:58;;;;;;;13.53;2.30;;;;;;;;;;5092372;28;20442;-69
2022/05/03 10:01:26;;;;;;;17.63;2.57;;;;;;;;;;5092117;28;20453;-69
2022/05/03 10:03:56;;;;;;;14.63;2.83;;;;;;;;;;5092613;28;20542;-69
2022/05/03 10:06:24;;;;;;;15.93;2.53;;;;;;;;;;5092658;28;20442;-69
2022/05/03 10:08:52;;;;;;;14.13;2.33;;;;;;;;;;5092351;28;20445;-69
2022/05/03 10:11:23;;;;;;;15.47;2.50;;;;;;;;;;5091928;28;20515;-69
2022/05/03 10:13:53;;;;;;;12.60;2.10;;;;;;;;;;5092616;28;20477;-69
2022/05/03 10:22:07;;;;;;;15.77;2.30;;;;;;;;;;5029869;28;20828;-68
2022/05/03 10:24:53;;;;;;;13.60;2.83;;;;;;;;;;5076959;28;20491;-69
2022/05/03 10:27:24;;;;;;;13.40;2.67;;;;;;;;;;5091950;28;20434;-69
2022/05/03 10:30:06;;;;;;;13.37;2.20;;;;;;;;;;5092059;28;20438;-71
2022/05/03 10:32:33;;;;;;;13.20;2.93;;;;;;;;;;5091895;28;20574;-69
2022/05/03 10:35:05;;;;;;;15.70;3.30;;;;;;;;;;5092158;28;20473;-69
2022/05/03 10:37:51;;;;;;;13.63;2.60;;;;;;;;;;5091638;28;20442;-69
2022/05/03 10:40:30;;;;;;;13.10;2.17;;;;;;;;;;5091851;28;20442;-69
2022/05/03 10:43:05;;;;;;;12.43;2.17;;;;;;;;;;5092220;28;20437;-69
2022/05/03 10:45:32;;;;;;;12.27;2.40;;;;;;;;;;5091713;28;20437;-69
2022/05/03 10:48:00;;;;;;;17.43;2.63;;;;;;;;;;5091834;28;20450;-69
2022/05/03 10:50:32;;;;;;;13.57;2.30;;;;;;;;;;5091913;28;20449;-69
2022/05/03 10:53:19;;;;;;;14.10;2.23;;;;;;;;;;5091862;28;20473;-69
2022/05/03 10:56:04;;;;;;;13.53;2.80;;;;;;;;;;5091663;28;21022;-69
2022/05/03 10:58:33;;;;;;;12.80;2.50;;;;;;;;;;5091762;28;20438;-69
2022/05/03 11:01:08;;;;;;;12.00;1.70;;;;;;;;;;5091328;28;20442;-69
2022/05/03 11:03:36;;;;;;;13.90;2.53;;;;;;;;;;5092882;28;20958;-69
2022/05/03 11:06:25;;;;;;;13.80;2.70;;;;;;;;;;5091966;28;20438;-69
2022/05/03 11:09:09;;;;;;;13.60;2.50;;;;;;;;;;5092039;28;20438;-70
2022/05/03 11:11:53;;;;;;;13.40;2.40;;;;;;;;;;5091602;28;20513;-69
2022/05/03 11:14:38;;;;;;;13.57;2.40;;;;;;;;;;5091493;28;20564;-69
2022/05/03 11:17:08;;;;;;;14.60;2.57;;;;;;;;;;5091556;28;20434;-69
2022/05/03 11:19:36;;;;;;;17.63;2.40;;;;;;;;;;5091739;28;20491;-69
2022/05/03 11:22:10;;;;;;;13.50;2.53;;;;;;;;;;5091402;28;20441;-69
2022/05/03 11:24:42;;;;;;;14.50;2.90;;;;;;;;;;5091857;28;20473;-69
2022/05/03 11:27:10;;;;;;;13.43;2.23;;;;;;;;;;5091869;28;20525;-69
2022/05/03 11:29:41;;;;;;;12.90;2.03;;;;;;;;;;5091387;28;20438;-70
2022/05/03 11:32:09;;;;;;;14.63;2.53;;;;;;;;;;5091859;28;20430;-69
2022/05/03 11:34:38;;;;;;;13.40;2.53;;;;;;;;;;5091357;28;20866;-70
2022/05/03 11:37:07;;;;;;;14.77;2.60;;;;;;;;;;5091685;28;20470;-70
2022/05/03 11:39:36;;;;;;;13.10;2.63;;;;;;;;;;5091062;28;20895;-70
2022/05/03 11:42:06;;;;;;;18.90;2.50;;;;;;;;;;5091556;28;20434;-70
2022/05/03 11:44:35;;;;;;;14.20;2.57;;;;;;;;;;5091289;28;20426;-69
2022/05/03 11:47:04;;;;;;;23.87;2.73;;;;;;;;;;5091202;28;20954;-70
2022/05/03 11:49:32;;;;;;;14.50;2.13;;;;;;;;;;5094265;28;21027;-70
2022/05/03 11:57:37;;;;;;;13.80;2.40;;;;;;;;;;5094590;28;20525;-70
2022/05/03 12:00:06;;;;;;;16.20;2.80;;;;;;;;;;5094714;28;20439;-70
2022/05/03 12:02:34;;;;;;;15.13;3.10;;;;;;;;;;5094222;28;20476;-70
2022/05/03 12:05:19;;;;;;;14.57;2.93;;;;;;;;;;5094678;28;20860;-70
2022/05/03 12:07:48;;;;;;;14.20;3.33;;;;;;;;;;5094456;28;20442;-70
2022/05/03 12:10:19;;;;;;;15.60;2.67;;;;;;;;;;5094873;28;20427;-72
2022/05/03 12:12:48;;;;;;;17.10;3.43;;;;;;;;;;5094783;28;20457;-69
2022/05/03 12:15:17;;;;;;;13.63;2.67;;;;;;;;;;5094223;28;20835;-69
2022/05/03 12:17:55;;;;;;;17.07;3.10;;;;;;;;;;5094286;28;20475;-70
2022/05/03 12:20:23;;;;;;;18.50;2.77;;;;;;;;;;5094440;28;20809;-69
2022/05/03 12:23:09;;;;;;;12.50;1.83;;;;;;;;;;5094357;28;20482;-69
2022/05/03 12:25:37;;;;;;;16.17;2.20;;;;;;;;;;5094264;28;20495;-68
2022/05/03 12:28:07;;;;;;;19.03;2.73;;;;;;;;;;5094119;28;20443;-69
2022/05/03 12:30:34;;;;;;;13.37;2.40;;;;;;;;;;5094141;28;20459;-69
2022/05/03 12:33:02;;;;;;;12.83;1.90;;;;;;;;;;5094039;28;21015;-69
2022/05/03 12:35:31;;;;;;;13.13;2.20;;;;;;;;;;5093719;28;20980;-68
2022/05/03 12:37:58;;;;;;;12.40;2.00;;;;;;;;;;5094254;28;20445;-68
2022/05/03 12:40:26;;;;;;;16.15;2.40;;;;;;;;;;5094331;28;20534;-68
2022/05/03 12:42:55;;;;;;;14.93;2.40;;;;;;;;;;5094055;28;20619;-68
2022/05/03 12:45:33;;;;;;;12.63;2.70;;;;;;;;;;5093675;28;20650;-69
2022/05/03 12:48:00;;;;;;;14.38;2.33;;;;;;;;;;5093758;28;20514;-69
2022/05/03 12:50:29;;;;;;;12.68;2.28;;;;;;;;;;5093685;28;20284;-68
2022/05/03 12:52:56;;;;;;;14.38;2.58;;;;;;;;;;5093778;28;20240;-68
2022/05/03 12:55:23;;;;;;;13.02;2.30;;;;;;;;;;5093551;28;20288;-68
2022/05/03 13:00:39;;;;;;;13.82;2.55;;;;;;;;;;5093585;28;20712;-69
2022/05/03 13:03:10;;;;;;;14.20;2.30;;;;;;;;;;5093114;28;20229;-68
2022/05/03 13:05:38;;;;;;;12.63;2.42;;;;;;;;;;5093716;28;20196;-68
2022/05/03 13:08:06;;;;;;;13.18;2.80;;;;;;;;;;5093408;28;20196;-68
2022/05/03 13:10:34;;;;;;;13.38;2.70;;;;;;;;;;5093727;28;20204;-68
2022/05/03 13:13:02;;;;;;;12.40;1.90;;;;;;;;;;5093433;28;20206;-68
2022/05/03 13:15:30;;;;;;;13.80;2.28;;;;;;;;;;5092921;28;20731;-68
2022/05/03 13:18:00;;;;;;;14.30;2.30;;;;;;;;;;5093230;28;20665;-68
2022/05/03 13:20:27;;;;;;;14.25;2.83;;;;;;;;;;5093333;28;20189;-68
2022/05/03 13:22:55;;;;;;;12.98;2.30;;;;;;;;;;5092900;28;20231;-68
2022/05/03 13:25:23;;;;;;;12.80;2.50;;;;;;;;;;5093205;28;20200;-69
2022/05/03 13:27:50;;;;;;;12.95;2.00;;;;;;;;;;5093428;28;20243;-69
2022/05/03 13:30:18;;;;;;;14.45;2.45;;;;;;;;;;5092886;28;20201;-69
2022/05/03 13:32:46;;;;;;;13.60;2.63;;;;;;;;;;5092865;28;20210;-68
2022/05/03 13:35:15;;;;;;;15.05;2.78;;;;;;;;;;5092885;28;20242;-69
2022/05/03 13:40:30;;;;;;;12.52;2.20;;;;;;;;;;5092873;28;20237;-68
2022/05/03 13:42:59;;;;;;;13.27;2.80;;;;;;;;;;5092800;28;20278;-68
2022/05/03 13:45:26;;;;;;;13.40;2.60;;;;;;;;;;5092411;28;20222;-69
2022/05/03 13:47:55;;;;;;;12.82;2.20;;;;;;;;;;5092692;28;20201;-68
2022/05/03 13:50:25;;;;;;;14.15;2.05;;;;;;;;;;5093184;28;20300;-68
2022/05/03 13:52:53;;;;;;;13.00;2.13;;;;;;;;;;5092649;28;20210;-68
2022/05/03 13:55:21;;;;;;;12.60;2.50;;;;;;;;;;5092383;28;20611;-68
2022/05/03 13:57:48;;;;;;;13.07;2.55;;;;;;;;;;5092467;28;20201;-68
2022/05/03 14:00:16;;;;;;;13.20;2.05;;;;;;;;;;5092538;28;20284;-68
2022/05/03 14:02:44;;;;;;;12.02;2.13;;;;;;;;;;5092663;28;20220;-68
2022/05/03 14:05:12;;;;;;;12.43;2.40;;;;;;;;;;5092236;28;20205;-68
2022/05/03 14:07:43;;;;;;;12.60;2.28;;;;;;;;;;5092678;28;20280;-68
2022/05/03 14:10:11;;;;;;;12.75;2.20;;;;;;;;;;5092198;28;20669;-68
2022/05/03 14:12:38;;;;;;;12.88;2.60;;;;;;;;;;5092150;28;20201;-68
2022/05/03 14:15:06;;;;;;;13.40;2.50;;;;;;;;;;5092079;28;20331;-68
2022/05/03 14:17:33;;;;;;;13.30;2.40;;;;;;;;;;5092053;28;20262;-69
2022/05/03 14:20:01;;;;;;;12.90;2.60;;;;;;;;;;5092060;28;20197;-68
2022/05/03 14:22:28;;;;;;;13.35;2.60;;;;;;;;;;5092410;28;20207;-68
2022/05/03 14:24:57;;;;;;;13.40;2.40;;;;;;;;;;5092134;28;20295;-68
2022/05/03 14:27:25;;;;;;;13.18;1.98;;;;;;;;;;5091706;28;20677;-69
2022/05/03 14:29:52;;;;;;;13.30;2.50;;;;;;;;;;5092247;28;20599;-68
2022/05/03 14:32:19;;;;;;;12.65;2.28;;;;;;;;;;5092320;28;20234;-68
2022/05/03 14:34:47;;;;;;;13.45;2.33;;;;;;;;;;5091999;28;20221;-68
2022/05/03 14:37:14;;;;;;;12.88;2.47;;;;;;;;;;5092346;28;20649;-68
2022/05/03 14:39:42;;;;;;;14.30;3.30;;;;;;;;;;5091910;28;20688;-68
2022/05/03 14:42:11;;;;;;;13.10;2.90;;;;;;;;;;5091932;28;20206;-68
2022/05/03 14:44:39;;;;;;;13.40;2.72;;;;;;;;;;5092084;28;20200;-68
2022/05/03 14:47:08;;;;;;;13.30;2.50;;;;;;;;;;5092133;28;20207;-68
2022/05/03 14:49:36;;;;;;;15.25;2.65;;;;;;;;;;5091795;28;20200;-68
2022/05/03 14:52:05;;;;;;;12.23;2.50;;;;;;;;;;5091752;28;20207;-68
2022/05/03 14:54:34;;;;;;;12.40;2.22;;;;;;;;;;5091687;28;20227;-68
2022/05/03 15:05:20;;;;;;;13.30;2.67;;;;;;;;;;5091637;28;20638;-69
2022/05/03 15:07:47;;;;;;;15.18;2.47;;;;;;;;;;5091833;28;20221;-68
2022/05/03 15:10:14;;;;;;;11.85;2.10;;;;;;;;;;5091842;28;20231;-69
2022/05/03 15:12:42;;;;;;;13.07;2.47;;;;;;;;;;5091616;28;20200;-68
2022/05/03 15:15:16;;;;;;;11.70;2.08;;;;;;;;;;5091762;28;20231;-69
2022/05/03 15:17:44;;;;;;;15.90;2.28;;;;;;;;;;5092063;28;20654;-68
2022/05/03 15:20:12;;;;;;;11.50;2.35;;;;;;;;;;5091898;28;20250;-68
2022/05/03 15:25:24;;;;;;;11.15;1.80;;;;;;;;;;5095528;28;20314;-69
2022/05/03 15:27:52;;;;;;;11.73;2.35;;;;;;;;;;5095276;28;20196;-68
2022/05/03 15:30:23;;;;;;;14.32;2.30;;;;;;;;;;5095541;28;20200;-68
2022/05/03 15:32:50;;;;;;;15.25;2.28;;;;;;;;;;5095579;28;20196;-68
2022/05/03 15:35:18;;;;;;;13.98;2.60;;;;;;;;;;5094863;28;20220;-69
2022/05/03 15:37:45;;;;;;;12.75;2.30;;;;;;;;;;5095329;28;20231;-68